createdAt,value
2022-12-11T00:01:32.765Z,97165.00
2022-12-11T00:05:34.188Z,97165.00
2022-12-11T00:09:35.447Z,97165.00
2022-12-11T00:13:36.410Z,97163.00
2022-12-11T00:17:37.488Z,97165.00
2022-12-11T00:21:38.773Z,97162.00
2022-12-11T00:25:45.595Z,97153.00
2022-12-11T00:29:46.544Z,97157.00
2022-12-11T00:33:48.510Z,97150.00
2022-12-11T00:37:49.512Z,97151.00
2022-12-11T00:41:50.621Z,97148.00
2022-12-11T00:45:51.865Z,97160.00
2022-12-11T00:49:52.877Z,97162.00
2022-12-11T00:53:53.923Z,97159.00
2022-12-11T00:57:55.780Z,97160.00
2022-12-11T01:01:56.785Z,97157.00
2022-12-11T01:05:57.706Z,97155.00
2022-12-11T01:10:17.267Z,97167.00
2022-12-11T01:14:18.440Z,97160.00
2022-12-11T01:18:19.273Z,97164.00
2022-12-11T01:22:20.476Z,97156.00
2022-12-11T01:26:21.705Z,97167.00
2022-12-11T01:30:25.044Z,97167.00
2022-12-11T01:34:31.527Z,97163.00
2022-12-11T01:38:32.476Z,97152.00
2022-12-11T01:42:34.083Z,97155.00
2022-12-11T01:46:38.402Z,97129.00
2022-12-11T01:50:48.951Z,97150.00
2022-12-11T01:54:50.851Z,97164.00
2022-12-11T01:58:59.417Z,97160.00
2022-12-11T02:03:00.683Z,97165.00
2022-12-11T02:07:03.349Z,97156.00
2022-12-11T02:11:11.510Z,97155.00
2022-12-11T02:15:16.415Z,97162.00
2022-12-11T02:19:33.200Z,97143.00
2022-12-11T02:24:07.756Z,97148.00
2022-12-11T02:28:16.465Z,97138.00
2022-12-11T02:32:21.276Z,97147.00
2022-12-11T02:36:25.871Z,97157.00
2022-12-11T02:40:30.666Z,97160.00
2022-12-11T02:44:34.489Z,97161.00
2022-12-11T02:48:36.768Z,97156.00
2022-12-11T02:52:39.608Z,97172.00
2022-12-11T02:57:05.828Z,97164.00
2022-12-11T03:01:07.558Z,97163.00
2022-12-11T03:05:10.773Z,97156.00
2022-12-11T03:09:14.383Z,97160.00
2022-12-11T03:13:19.347Z,97176.00
2022-12-11T03:17:27.159Z,97152.00
2022-12-11T03:21:35.102Z,97156.00
2022-12-11T03:25:48.257Z,97151.00
2022-12-11T03:29:58.784Z,97148.00
2022-12-11T03:34:03.381Z,97151.00
2022-12-11T03:38:11.496Z,97156.00
2022-12-11T03:42:15.010Z,97149.00
2022-12-11T03:46:18.560Z,97143.00
2022-12-11T03:50:21.388Z,97147.00
2022-12-11T03:54:23.933Z,97151.00
2022-12-11T03:58:26.434Z,97144.00
2022-12-11T04:02:29.040Z,97146.00
2022-12-11T04:06:30.264Z,97145.00
2022-12-11T04:10:31.446Z,97142.00
2022-12-11T04:14:52.575Z,97142.00
2022-12-11T04:19:12.223Z,97147.00
2022-12-11T04:23:34.477Z,97146.00
2022-12-11T04:27:50.710Z,97146.00
2022-12-11T04:31:51.952Z,97154.00
2022-12-11T04:35:53.317Z,97153.00
2022-12-11T04:39:56.365Z,97151.00
2022-12-11T04:43:57.655Z,96974.00
2022-12-11T04:47:59.086Z,97137.00
2022-12-11T04:52:00.132Z,97141.00
2022-12-11T04:56:03.197Z,97145.00
2022-12-11T05:00:06.877Z,97136.00
2022-12-11T05:04:08.042Z,97143.00
2022-12-11T05:08:09.092Z,97147.00
2022-12-11T05:12:10.144Z,97143.00
2022-12-11T05:16:14.903Z,97130.00
2022-12-11T05:20:17.580Z,97119.00
2022-12-11T05:24:20.501Z,97127.00
2022-12-11T05:28:24.610Z,97113.00
2022-12-11T05:32:26.029Z,97122.00
2022-12-11T05:36:32.876Z,97121.00
2022-12-11T05:40:33.923Z,97123.00
2022-12-11T05:44:36.851Z,97127.00
2022-12-11T05:48:38.996Z,97116.00
2022-12-11T05:52:40.186Z,97115.00
2022-12-11T05:56:42.517Z,97122.00
2022-12-11T06:00:44.074Z,97124.00
2022-12-11T06:04:45.262Z,97127.00
2022-12-11T06:08:55.833Z,97114.00
2022-12-11T06:12:56.939Z,97110.00
2022-12-11T06:16:58.090Z,97107.00
2022-12-11T06:20:59.154Z,97105.00
2022-12-11T06:25:00.126Z,97095.00
2022-12-11T06:29:01.304Z,97102.00
2022-12-11T06:33:05.002Z,97105.00
2022-12-11T06:37:06.865Z,97098.00
2022-12-11T06:41:08.990Z,97098.00
2022-12-11T06:45:11.249Z,97098.00
2022-12-11T06:49:12.495Z,97104.00
2022-12-11T06:53:14.985Z,97107.00
2022-12-11T06:57:18.871Z,97105.00
2022-12-11T07:01:23.903Z,97111.00
2022-12-11T07:05:25.199Z,97110.00
2022-12-11T07:09:26.474Z,97115.00
2022-12-11T07:13:27.578Z,97117.00
2022-12-11T07:17:29.305Z,97120.00
2022-12-11T07:21:30.523Z,97032.00
2022-12-11T07:25:31.772Z,97122.00
2022-12-11T07:29:32.880Z,97115.00
2022-12-11T07:33:34.635Z,97134.00
2022-12-11T07:37:35.984Z,97121.00
2022-12-11T07:41:37.926Z,97114.00
2022-12-11T07:45:39.097Z,97111.00
2022-12-11T07:49:40.082Z,97110.00
2022-12-11T07:53:42.514Z,97116.00
2022-12-11T07:57:43.496Z,97118.00
2022-12-11T08:01:44.925Z,97132.00
2022-12-11T08:05:49.593Z,97136.00
2022-12-11T08:09:50.755Z,97117.00
2022-12-11T08:13:51.768Z,97126.00
2022-12-11T08:17:53.029Z,97129.00
2022-12-11T08:21:54.078Z,97133.00
2022-12-11T08:25:56.442Z,97145.00
2022-12-11T08:29:57.515Z,97145.00
2022-12-11T08:33:59.995Z,97129.00
2022-12-11T08:38:03.547Z,97120.00
2022-12-11T08:42:04.605Z,97112.00
2022-12-11T08:46:06.633Z,97115.00
2022-12-11T08:50:08.645Z,96954.00
2022-12-11T08:54:10.511Z,97128.00
2022-12-11T08:58:11.726Z,97113.00
2022-12-11T09:02:12.881Z,97122.00
2022-12-11T09:06:16.657Z,97120.00
2022-12-11T09:10:17.853Z,97125.00
2022-12-11T09:14:20.945Z,97123.00
2022-12-11T09:18:21.891Z,97125.00
2022-12-11T09:22:23.150Z,97119.00
2022-12-11T09:26:25.512Z,97113.00
2022-12-11T09:30:27.142Z,97118.00
2022-12-11T09:34:29.592Z,97130.00
2022-12-11T09:38:31.646Z,97131.00
2022-12-11T09:42:54.593Z,97131.00
2022-12-11T09:46:57.396Z,97129.00
2022-12-11T09:51:02.401Z,97128.00
2022-12-11T09:55:16.325Z,97116.00
2022-12-11T09:59:36.707Z,97116.00
2022-12-11T10:03:50.969Z,97116.00
2022-12-11T10:07:55.737Z,97123.00
2022-12-11T10:12:06.658Z,97104.00
2022-12-11T10:16:23.773Z,97104.00
2022-12-11T10:20:41.822Z,97091.00
2022-12-11T10:25:11.265Z,97098.00
2022-12-11T10:28:58.606Z,97101.00
2022-12-11T10:33:12.562Z,97094.00
2022-12-11T10:37:14.443Z,97093.00
2022-12-11T10:41:20.594Z,97099.00
2022-12-11T10:45:21.860Z,97098.00
2022-12-11T10:49:29.244Z,97101.00
2022-12-11T10:53:32.710Z,97097.00
2022-12-11T10:57:38.421Z,97093.00
2022-12-11T11:01:41.791Z,97096.00
2022-12-11T11:05:49.105Z,97095.00
2022-12-11T11:09:46.519Z,97088.00
2022-12-11T11:13:48.114Z,97084.00
2022-12-11T11:17:56.042Z,97106.00
2022-12-11T11:22:00.147Z,97074.00
2022-12-11T11:26:03.908Z,97077.00
2022-12-11T11:30:08.696Z,97080.00
2022-12-11T11:34:13.421Z,97070.00
2022-12-11T11:38:20.411Z,97066.00
2022-12-11T11:42:29.244Z,97061.00
2022-12-11T11:46:46.339Z,97054.00
2022-12-11T11:50:49.986Z,97059.00
2022-12-11T11:54:54.764Z,97051.00
2022-12-11T11:59:15.256Z,97053.00
2022-12-11T12:03:19.104Z,97044.00
2022-12-11T12:07:24.569Z,97044.00
2022-12-11T12:11:35.517Z,97039.00
2022-12-11T12:15:58.158Z,97036.00
2022-12-11T12:20:05.802Z,97035.00
2022-12-11T12:24:34.745Z,97037.00
2022-12-11T12:28:59.629Z,97045.00
2022-12-11T12:33:22.737Z,97041.00
2022-12-11T12:37:36.521Z,97039.00
2022-12-11T12:41:41.474Z,97051.00
2022-12-11T12:45:54.982Z,97030.00
2022-12-11T12:49:58.962Z,97035.00
2022-12-11T12:54:04.630Z,97031.00
2022-12-11T12:58:06.788Z,97026.00
2022-12-11T13:02:11.949Z,97035.00
2022-12-11T13:06:13.316Z,97037.00
2022-12-11T13:10:30.201Z,97023.00
2022-12-11T13:14:33.163Z,97029.00
2022-12-11T13:18:37.816Z,97029.00
2022-12-11T13:22:47.779Z,97040.00
2022-12-11T13:26:50.162Z,97035.00
2022-12-11T13:31:04.363Z,97042.00
2022-12-11T13:35:07.550Z,97038.00
2022-12-11T13:39:27.741Z,97043.00
2022-12-11T13:43:32.590Z,97051.00
2022-12-11T13:47:35.868Z,97047.00
2022-12-11T13:51:38.943Z,97041.00
2022-12-11T13:55:40.331Z,97052.00
2022-12-11T13:59:44.533Z,97044.00
2022-12-11T14:03:58.440Z,97052.00
2022-12-11T14:08:03.870Z,97047.00
2022-12-11T14:12:05.740Z,97037.00
2022-12-11T14:16:07.216Z,97038.00
2022-12-11T14:20:21.585Z,97045.00
2022-12-11T14:24:22.668Z,97036.00
2022-12-11T14:28:27.384Z,97040.00
2022-12-11T14:32:31.858Z,97043.00
2022-12-11T14:36:36.315Z,97048.00
2022-12-11T14:40:41.272Z,97058.00
2022-12-11T14:45:04.868Z,97061.00
2022-12-11T14:49:10.010Z,97069.00
2022-12-11T14:53:15.043Z,97060.00
2022-12-11T14:57:22.351Z,97072.00
2022-12-11T15:01:26.992Z,97070.00
2022-12-11T15:05:28.936Z,97064.00
2022-12-11T15:09:36.912Z,97065.00
2022-12-11T15:13:56.930Z,97070.00
2022-12-11T15:17:58.410Z,97077.00
2022-12-11T15:22:04.801Z,97075.00
2022-12-11T15:26:06.074Z,97075.00
2022-12-11T15:30:27.344Z,97069.00
2022-12-11T15:34:34.465Z,97076.00
2022-12-11T15:38:40.107Z,97093.00
2022-12-11T15:42:41.860Z,97090.00
2022-12-11T15:46:43.188Z,97089.00
2022-12-11T15:50:44.316Z,97087.00
2022-12-11T15:54:45.370Z,97087.00
2022-12-11T15:58:47.699Z,97090.00
2022-12-11T16:02:52.147Z,97096.00
2022-12-11T16:06:53.957Z,97095.00
2022-12-11T16:10:55.644Z,97098.00
2022-12-11T16:14:56.836Z,97095.00
2022-12-11T16:18:57.996Z,97088.00
2022-12-11T16:22:59.891Z,97089.00
2022-12-11T16:27:01.960Z,97090.00
2022-12-11T16:31:03.359Z,97091.00
2022-12-11T16:35:07.473Z,97090.00
2022-12-11T16:39:11.730Z,97088.00
2022-12-11T16:43:12.688Z,97080.00
2022-12-11T16:47:13.748Z,97073.00
2022-12-11T16:51:15.529Z,97083.00
2022-12-11T16:55:18.698Z,97088.00
2022-12-11T16:59:19.879Z,97096.00
2022-12-11T17:03:20.917Z,97082.00
2022-12-11T17:07:21.832Z,97089.00
2022-12-11T17:11:27.292Z,97077.00
2022-12-11T17:15:28.351Z,97085.00
2022-12-11T17:19:29.393Z,97069.00
2022-12-11T17:23:30.546Z,97067.00
2022-12-11T17:27:31.549Z,97068.00
2022-12-11T17:31:33.173Z,97063.00
2022-12-11T17:35:34.346Z,97077.00
2022-12-11T17:39:36.732Z,97063.00
2022-12-11T17:43:37.721Z,97065.00
2022-12-11T17:47:38.706Z,97060.00
2022-12-11T17:51:39.828Z,97066.00
2022-12-11T17:55:42.478Z,97059.00
2022-12-11T17:59:43.624Z,97057.00
2022-12-11T18:03:44.928Z,97062.00
2022-12-11T18:07:46.339Z,97062.00
2022-12-11T18:11:47.720Z,97060.00
2022-12-11T18:16:04.905Z,97058.00
2022-12-11T18:20:06.498Z,97063.00
2022-12-11T18:24:08.547Z,97059.00
2022-12-11T18:28:09.859Z,97063.00
2022-12-11T18:32:10.982Z,97062.00
2022-12-11T18:36:14.340Z,97057.00
2022-12-11T18:40:15.504Z,97052.00
2022-12-11T18:44:18.495Z,97060.00
2022-12-11T18:48:19.474Z,97059.00
2022-12-11T18:52:20.630Z,97058.00
2022-12-11T18:56:22.369Z,97060.00
2022-12-11T19:00:23.469Z,97050.00
2022-12-11T19:04:24.979Z,97068.00
2022-12-11T19:08:28.421Z,97069.00
2022-12-11T19:12:29.564Z,97075.00
2022-12-11T19:16:33.964Z,97063.00
2022-12-11T19:20:48.941Z,97073.00
2022-12-11T19:24:40.627Z,97066.00
2022-12-11T19:28:42.019Z,97058.00
2022-12-11T19:32:43.228Z,97064.00
2022-12-11T19:36:44.601Z,97060.00
2022-12-11T19:40:45.687Z,97071.00
2022-12-11T19:44:46.889Z,97075.00
2022-12-11T19:48:49.567Z,97068.00
2022-12-11T19:52:50.574Z,97070.00
2022-12-11T19:56:52.181Z,97071.00
2022-12-11T20:00:53.691Z,97067.00
2022-12-11T20:04:54.873Z,97066.00
2022-12-11T20:08:56.695Z,97063.00
2022-12-11T20:12:58.714Z,97070.00
2022-12-11T20:17:11.896Z,97061.00
2022-12-11T20:21:05.642Z,97071.00
2022-12-11T20:25:07.040Z,97068.00
2022-12-11T20:29:08.165Z,97092.00
2022-12-11T20:33:09.256Z,97054.00
2022-12-11T20:37:12.110Z,97067.00
2022-12-11T20:41:15.695Z,97051.00
2022-12-11T20:45:17.926Z,97055.00
2022-12-11T20:49:19.035Z,97050.00
2022-12-11T20:53:20.069Z,97053.00
2022-12-11T20:57:21.177Z,97057.00
2022-12-11T21:01:24.542Z,97055.00
2022-12-11T21:05:25.761Z,97079.00
2022-12-11T21:09:29.262Z,97059.00
2022-12-11T21:13:30.639Z,97048.00
2022-12-11T21:17:31.727Z,97049.00
2022-12-11T21:21:36.420Z,97054.00
2022-12-11T21:25:39.918Z,97045.00
2022-12-11T21:29:41.065Z,97051.00
2022-12-11T21:33:42.223Z,97043.00
2022-12-11T21:37:43.318Z,97044.00
2022-12-11T21:41:44.420Z,97045.00
2022-12-11T21:46:02.261Z,97053.00
2022-12-11T21:49:48.700Z,97048.00
2022-12-11T21:53:51.509Z,97050.00
2022-12-11T21:57:54.465Z,97056.00
2022-12-11T22:01:56.036Z,97058.00
2022-12-11T22:05:57.035Z,97063.00
2022-12-11T22:09:58.047Z,97058.00
2022-12-11T22:13:59.172Z,97056.00
2022-12-11T22:18:00.297Z,97052.00
2022-12-11T22:22:01.420Z,97058.00
2022-12-11T22:26:02.647Z,97061.00
2022-12-11T22:30:04.897Z,97070.00
2022-12-11T22:34:05.956Z,97070.00
2022-12-11T22:38:07.175Z,97071.00
2022-12-11T22:42:08.415Z,97076.00
2022-12-11T22:46:13.437Z,97077.00
2022-12-11T22:50:15.760Z,97077.00
2022-12-11T22:54:16.717Z,97076.00
2022-12-11T22:58:21.789Z,97078.00
2022-12-11T23:02:20.720Z,97074.00
2022-12-11T23:06:24.190Z,97070.00
2022-12-11T23:10:25.182Z,97070.00
2022-12-11T23:14:27.136Z,97072.00
2022-12-11T23:18:28.311Z,97067.00
2022-12-11T23:22:29.524Z,97077.00
2022-12-11T23:26:31.248Z,97079.00
2022-12-11T23:30:32.263Z,97080.00
2022-12-11T23:34:33.243Z,97079.00
2022-12-11T23:38:34.530Z,97079.00
2022-12-11T23:42:35.664Z,97085.00
2022-12-11T23:46:36.879Z,97079.00
2022-12-11T23:50:39.207Z,97117.00
2022-12-11T23:54:40.441Z,97088.00
2022-12-11T23:58:41.851Z,97082.00
